sensor_id;sensor_type;location;lat;lon;timestamp;P1;durP1;ratioP1;P2;durP2;ratioP2
31284;SDS011;56605;51.516;6.742;2022-12-18T00:00:43;69.30;;;34.60;;
31284;SDS011;56605;51.516;6.742;2022-12-18T00:03:08;86.90;;;37.33;;
31284;SDS011;56605;51.516;6.742;2022-12-18T00:05:34;78.57;;;36.70;;
31284;SDS011;56605;51.516;6.742;2022-12-18T00:07:59;80.60;;;35.17;;
31284;SDS011;56605;51.516;6.742;2022-12-18T00:10:24;76.40;;;34.37;;
31284;SDS011;56605;51.516;6.742;2022-12-18T00:12:49;73.00;;;33.00;;
31284;SDS011;56605;51.516;6.742;2022-12-18T00:15:15;66.77;;;29.37;;
31284;SDS011;56605;51.516;6.742;2022-12-18T00:17:40;78.57;;;35.63;;
31284;SDS011;56605;51.516;6.742;2022-12-18T00:20:05;69.13;;;33.37;;
31284;SDS011;56605;51.516;6.742;2022-12-18T00:22:30;76.50;;;34.43;;
31284;SDS011;56605;51.516;6.742;2022-12-18T00:24:56;69.70;;;31.97;;
31284;SDS011;56605;51.516;6.742;2022-12-18T00:27:21;69.40;;;31.20;;
31284;SDS011;56605;51.516;6.742;2022-12-18T00:29:47;66.23;;;32.27;;
31284;SDS011;56605;51.516;6.742;2022-12-18T00:32:13;75.07;;;34.73;;
31284;SDS011;56605;51.516;6.742;2022-12-18T00:34:38;63.33;;;28.43;;
31284;SDS011;56605;51.516;6.742;2022-12-18T00:37:03;63.93;;;27.00;;
31284;SDS011;56605;51.516;6.742;2022-12-18T00:39:28;52.37;;;24.83;;
31284;SDS011;56605;51.516;6.742;2022-12-18T00:41:53;64.15;;;29.38;;
31284;SDS011;56605;51.516;6.742;2022-12-18T00:44:37;65.67;;;31.47;;
31284;SDS011;56605;51.516;6.742;2022-12-18T00:47:02;79.17;;;32.83;;
31284;SDS011;56605;51.516;6.742;2022-12-18T00:49:27;71.60;;;30.33;;
31284;SDS011;56605;51.516;6.742;2022-12-18T00:51:52;69.67;;;31.10;;
31284;SDS011;56605;51.516;6.742;2022-12-18T00:54:18;49.60;;;27.27;;
31284;SDS011;56605;51.516;6.742;2022-12-18T00:56:43;65.78;;;29.08;;
31284;SDS011;56605;51.516;6.742;2022-12-18T00:59:08;58.50;;;26.53;;
31284;SDS011;56605;51.516;6.742;2022-12-18T01:01:33;63.93;;;30.03;;
31284;SDS011;56605;51.516;6.742;2022-12-18T01:03:59;53.40;;;26.93;;
31284;SDS011;56605;51.516;6.742;2022-12-18T01:06:25;53.17;;;25.63;;
31284;SDS011;56605;51.516;6.742;2022-12-18T01:08:50;55.27;;;25.03;;
31284;SDS011;56605;51.516;6.742;2022-12-18T01:11:16;51.93;;;23.97;;
31284;SDS011;56605;51.516;6.742;2022-12-18T01:13:41;55.70;;;25.43;;
31284;SDS011;56605;51.516;6.742;2022-12-18T01:16:07;57.13;;;25.17;;
31284;SDS011;56605;51.516;6.742;2022-12-18T01:18:32;62.87;;;25.80;;
31284;SDS011;56605;51.516;6.742;2022-12-18T01:20:57;52.63;;;24.00;;
31284;SDS011;56605;51.516;6.742;2022-12-18T01:23:23;65.17;;;25.97;;
31284;SDS011;56605;51.516;6.742;2022-12-18T01:25:48;52.33;;;23.80;;
31284;SDS011;56605;51.516;6.742;2022-12-18T01:28:13;48.87;;;23.23;;
31284;SDS011;56605;51.516;6.742;2022-12-18T01:30:39;61.03;;;25.17;;
31284;SDS011;56605;51.516;6.742;2022-12-18T01:33:04;51.13;;;23.40;;
31284;SDS011;56605;51.516;6.742;2022-12-18T01:35:29;53.63;;;24.30;;
31284;SDS011;56605;51.516;6.742;2022-12-18T01:37:55;56.33;;;23.50;;
31284;SDS011;56605;51.516;6.742;2022-12-18T01:40:20;52.40;;;24.73;;
31284;SDS011;56605;51.516;6.742;2022-12-18T01:42:49;50.83;;;22.60;;
31284;SDS011;56605;51.516;6.742;2022-12-18T01:47:44;43.30;;;22.67;;
31284;SDS011;56605;51.516;6.742;2022-12-18T01:50:11;52.17;;;23.80;;
31284;SDS011;56605;51.516;6.742;2022-12-18T01:52:37;46.13;;;21.37;;
31284;SDS011;56605;51.516;6.742;2022-12-18T01:55:03;51.93;;;22.53;;
31284;SDS011;56605;51.516;6.742;2022-12-18T01:57:29;55.70;;;22.67;;
31284;SDS011;56605;51.516;6.742;2022-12-18T01:59:57;48.47;;;23.37;;
31284;SDS011;56605;51.516;6.742;2022-12-18T02:10:05;46.67;;;21.97;;
31284;SDS011;56605;51.516;6.742;2022-12-18T02:15:17;55.00;;;24.17;;
31284;SDS011;56605;51.516;6.742;2022-12-18T02:17:52;43.77;;;21.90;;
31284;SDS011;56605;51.516;6.742;2022-12-18T02:21:08;43.17;;;22.13;;
31284;SDS011;56605;51.516;6.742;2022-12-18T02:23:06;60.40;;;22.97;;
31284;SDS011;56605;51.516;6.742;2022-12-18T02:25:51;42.00;;;22.97;;
31284;SDS011;56605;51.516;6.742;2022-12-18T02:28:18;54.60;;;23.50;;
31284;SDS011;56605;51.516;6.742;2022-12-18T02:30:44;53.80;;;25.77;;
31284;SDS011;56605;51.516;6.742;2022-12-18T02:33:11;60.23;;;25.67;;
31284;SDS011;56605;51.516;6.742;2022-12-18T02:35:37;63.20;;;28.13;;
31284;SDS011;56605;51.516;6.742;2022-12-18T02:38:03;61.73;;;27.07;;
31284;SDS011;56605;51.516;6.742;2022-12-18T02:40:29;59.77;;;24.60;;
31284;SDS011;56605;51.516;6.742;2022-12-18T02:42:55;59.70;;;25.13;;
31284;SDS011;56605;51.516;6.742;2022-12-18T02:45:20;55.30;;;24.83;;
31284;SDS011;56605;51.516;6.742;2022-12-18T02:47:46;41.60;;;22.03;;
31284;SDS011;56605;51.516;6.742;2022-12-18T02:57:53;50.93;;;21.67;;
31284;SDS011;56605;51.516;6.742;2022-12-18T03:00:23;47.37;;;23.83;;
31284;SDS011;56605;51.516;6.742;2022-12-18T03:05:24;58.43;;;25.80;;
31284;SDS011;56605;51.516;6.742;2022-12-18T03:07:54;45.43;;;21.53;;
31284;SDS011;56605;51.516;6.742;2022-12-18T03:10:21;55.27;;;25.30;;
31284;SDS011;56605;51.516;6.742;2022-12-18T03:12:51;55.70;;;21.77;;
31284;SDS011;56605;51.516;6.742;2022-12-18T03:15:22;44.00;;;19.90;;
31284;SDS011;56605;51.516;6.742;2022-12-18T03:17:52;52.67;;;23.10;;
31284;SDS011;56605;51.516;6.742;2022-12-18T03:20:20;47.73;;;21.97;;
31284;SDS011;56605;51.516;6.742;2022-12-18T03:22:47;51.57;;;21.17;;
31284;SDS011;56605;51.516;6.742;2022-12-18T03:25:14;52.27;;;24.23;;
31284;SDS011;56605;51.516;6.742;2022-12-18T03:27:42;52.67;;;23.30;;
31284;SDS011;56605;51.516;6.742;2022-12-18T03:30:10;47.10;;;20.87;;
31284;SDS011;56605;51.516;6.742;2022-12-18T03:35:22;53.67;;;21.10;;
31284;SDS011;56605;51.516;6.742;2022-12-18T03:37:48;44.50;;;19.77;;
31284;SDS011;56605;51.516;6.742;2022-12-18T03:40:13;46.97;;;18.83;;
31284;SDS011;56605;51.516;6.742;2022-12-18T03:42:42;42.40;;;21.33;;
31284;SDS011;56605;51.516;6.742;2022-12-18T03:50:05;55.60;;;22.73;;
31284;SDS011;56605;51.516;6.742;2022-12-18T03:52:46;48.20;;;20.90;;
31284;SDS011;56605;51.516;6.742;2022-12-18T03:55:13;55.30;;;22.13;;
31284;SDS011;56605;51.516;6.742;2022-12-18T03:57:38;43.67;;;21.03;;
31284;SDS011;56605;51.516;6.742;2022-12-18T04:00:13;41.93;;;19.47;;
31284;SDS011;56605;51.516;6.742;2022-12-18T04:02:41;48.07;;;23.40;;
31284;SDS011;56605;51.516;6.742;2022-12-18T04:05:07;51.07;;;21.37;;
31284;SDS011;56605;51.516;6.742;2022-12-18T04:07:33;44.33;;;20.87;;
31284;SDS011;56605;51.516;6.742;2022-12-18T04:09:59;58.23;;;24.57;;
31284;SDS011;56605;51.516;6.742;2022-12-18T04:12:26;59.47;;;24.23;;
31284;SDS011;56605;51.516;6.742;2022-12-18T04:14:51;59.33;;;26.17;;
31284;SDS011;56605;51.516;6.742;2022-12-18T04:17:17;54.43;;;24.37;;
31284;SDS011;56605;51.516;6.742;2022-12-18T04:19:42;52.53;;;24.57;;
31284;SDS011;56605;51.516;6.742;2022-12-18T04:22:09;55.20;;;24.83;;
31284;SDS011;56605;51.516;6.742;2022-12-18T04:24:34;60.07;;;23.73;;
31284;SDS011;56605;51.516;6.742;2022-12-18T04:26:59;46.57;;;19.80;;
31284;SDS011;56605;51.516;6.742;2022-12-18T04:29:24;43.83;;;20.92;;
31284;SDS011;56605;51.516;6.742;2022-12-18T04:31:49;42.63;;;20.70;;
31284;SDS011;56605;51.516;6.742;2022-12-18T04:34:15;47.53;;;20.65;;
31284;SDS011;56605;51.516;6.742;2022-12-18T04:36:40;48.40;;;20.93;;
31284;SDS011;56605;51.516;6.742;2022-12-18T04:39:05;55.03;;;21.02;;
31284;SDS011;56605;51.516;6.742;2022-12-18T04:41:30;44.23;;;22.10;;
31284;SDS011;56605;51.516;6.742;2022-12-18T04:43:55;43.77;;;19.93;;
31284;SDS011;56605;51.516;6.742;2022-12-18T04:46:20;50.97;;;22.10;;
31284;SDS011;56605;51.516;6.742;2022-12-18T04:48:46;42.27;;;20.87;;
31284;SDS011;56605;51.516;6.742;2022-12-18T04:51:11;46.23;;;17.50;;
31284;SDS011;56605;51.516;6.742;2022-12-18T04:53:37;46.53;;;21.37;;
31284;SDS011;56605;51.516;6.742;2022-12-18T04:56:05;46.57;;;18.13;;
31284;SDS011;56605;51.516;6.742;2022-12-18T04:58:31;40.73;;;16.90;;
31284;SDS011;56605;51.516;6.742;2022-12-18T05:00:56;41.30;;;18.50;;
31284;SDS011;56605;51.516;6.742;2022-12-18T05:03:21;47.80;;;19.70;;
31284;SDS011;56605;51.516;6.742;2022-12-18T05:05:49;41.53;;;18.70;;
31284;SDS011;56605;51.516;6.742;2022-12-18T05:08:14;34.23;;;16.77;;
31284;SDS011;56605;51.516;6.742;2022-12-18T05:10:39;42.10;;;18.07;;
31284;SDS011;56605;51.516;6.742;2022-12-18T05:13:04;37.53;;;17.73;;
31284;SDS011;56605;51.516;6.742;2022-12-18T05:15:30;30.27;;;16.67;;
31284;SDS011;56605;51.516;6.742;2022-12-18T05:17:56;33.30;;;16.17;;
31284;SDS011;56605;51.516;6.742;2022-12-18T05:20:22;35.47;;;16.57;;
31284;SDS011;56605;51.516;6.742;2022-12-18T05:22:47;46.47;;;18.77;;
31284;SDS011;56605;51.516;6.742;2022-12-18T05:25:12;44.97;;;17.77;;
31284;SDS011;56605;51.516;6.742;2022-12-18T05:27:37;34.73;;;17.17;;
31284;SDS011;56605;51.516;6.742;2022-12-18T05:30:02;31.60;;;14.80;;
31284;SDS011;56605;51.516;6.742;2022-12-18T05:32:28;34.10;;;16.57;;
31284;SDS011;56605;51.516;6.742;2022-12-18T05:34:53;40.53;;;17.43;;
31284;SDS011;56605;51.516;6.742;2022-12-18T05:37:18;37.43;;;17.93;;
31284;SDS011;56605;51.516;6.742;2022-12-18T05:39:43;31.40;;;15.30;;
31284;SDS011;56605;51.516;6.742;2022-12-18T05:42:08;45.80;;;18.70;;
31284;SDS011;56605;51.516;6.742;2022-12-18T05:44:34;41.43;;;17.87;;
31284;SDS011;56605;51.516;6.742;2022-12-18T05:46:59;34.10;;;15.00;;
31284;SDS011;56605;51.516;6.742;2022-12-18T05:49:25;39.20;;;17.77;;
31284;SDS011;56605;51.516;6.742;2022-12-18T05:51:50;40.20;;;18.83;;
31284;SDS011;56605;51.516;6.742;2022-12-18T05:54:15;36.13;;;18.13;;
31284;SDS011;56605;51.516;6.742;2022-12-18T05:56:40;38.53;;;16.57;;
31284;SDS011;56605;51.516;6.742;2022-12-18T05:59:05;38.27;;;18.00;;
31284;SDS011;56605;51.516;6.742;2022-12-18T06:01:31;40.77;;;18.53;;
31284;SDS011;56605;51.516;6.742;2022-12-18T06:03:56;35.47;;;15.33;;
31284;SDS011;56605;51.516;6.742;2022-12-18T06:06:25;36.23;;;17.00;;
31284;SDS011;56605;51.516;6.742;2022-12-18T06:08:50;43.07;;;17.00;;
31284;SDS011;56605;51.516;6.742;2022-12-18T06:11:17;40.90;;;17.83;;
31284;SDS011;56605;51.516;6.742;2022-12-18T06:13:42;35.47;;;17.20;;
31284;SDS011;56605;51.516;6.742;2022-12-18T06:16:07;43.03;;;18.87;;
31284;SDS011;56605;51.516;6.742;2022-12-18T06:18:33;37.80;;;16.33;;
31284;SDS011;56605;51.516;6.742;2022-12-18T06:20:58;39.70;;;17.37;;
31284;SDS011;56605;51.516;6.742;2022-12-18T06:23:23;40.63;;;19.13;;
31284;SDS011;56605;51.516;6.742;2022-12-18T06:25:49;33.93;;;13.87;;
31284;SDS011;56605;51.516;6.742;2022-12-18T06:28:15;56.27;;;22.03;;
31284;SDS011;56605;51.516;6.742;2022-12-18T06:30:42;25.30;;;12.07;;
31284;SDS011;56605;51.516;6.742;2022-12-18T06:33:08;38.43;;;13.73;;
31284;SDS011;56605;51.516;6.742;2022-12-18T06:35:33;30.30;;;14.60;;
31284;SDS011;56605;51.516;6.742;2022-12-18T06:37:58;32.23;;;15.40;;
31284;SDS011;56605;51.516;6.742;2022-12-18T06:40:25;40.17;;;18.43;;
31284;SDS011;56605;51.516;6.742;2022-12-18T06:42:50;33.27;;;15.70;;
31284;SDS011;56605;51.516;6.742;2022-12-18T06:45:16;44.40;;;18.83;;
31284;SDS011;56605;51.516;6.742;2022-12-18T06:47:41;41.00;;;19.03;;
31284;SDS011;56605;51.516;6.742;2022-12-18T06:50:06;39.23;;;18.33;;
31284;SDS011;56605;51.516;6.742;2022-12-18T06:52:32;32.80;;;15.90;;
31284;SDS011;56605;51.516;6.742;2022-12-18T06:54:57;43.03;;;17.47;;
31284;SDS011;56605;51.516;6.742;2022-12-18T06:57:22;35.43;;;17.17;;
31284;SDS011;56605;51.516;6.742;2022-12-18T06:59:47;40.70;;;16.83;;
31284;SDS011;56605;51.516;6.742;2022-12-18T07:02:12;33.93;;;16.43;;
31284;SDS011;56605;51.516;6.742;2022-12-18T07:04:37;36.57;;;17.73;;
31284;SDS011;56605;51.516;6.742;2022-12-18T07:07:03;34.17;;;14.83;;
31284;SDS011;56605;51.516;6.742;2022-12-18T07:09:28;43.70;;;17.00;;
31284;SDS011;56605;51.516;6.742;2022-12-18T07:11:53;37.93;;;15.53;;
31284;SDS011;56605;51.516;6.742;2022-12-18T07:14:18;36.53;;;16.27;;
31284;SDS011;56605;51.516;6.742;2022-12-18T07:16:44;35.67;;;15.43;;
31284;SDS011;56605;51.516;6.742;2022-12-18T07:19:09;36.30;;;16.50;;
31284;SDS011;56605;51.516;6.742;2022-12-18T07:21:34;41.67;;;17.20;;
31284;SDS011;56605;51.516;6.742;2022-12-18T07:23:59;40.73;;;18.43;;
31284;SDS011;56605;51.516;6.742;2022-12-18T07:26:24;30.27;;;15.63;;
31284;SDS011;56605;51.516;6.742;2022-12-18T07:28:54;40.77;;;17.20;;
31284;SDS011;56605;51.516;6.742;2022-12-18T07:31:20;45.33;;;18.53;;
31284;SDS011;56605;51.516;6.742;2022-12-18T07:33:46;35.73;;;17.00;;
31284;SDS011;56605;51.516;6.742;2022-12-18T07:36:11;43.77;;;19.27;;
31284;SDS011;56605;51.516;6.742;2022-12-18T07:38:37;38.97;;;17.20;;
31284;SDS011;56605;51.516;6.742;2022-12-18T07:41:06;32.47;;;15.53;;
31284;SDS011;56605;51.516;6.742;2022-12-18T07:43:32;49.53;;;19.47;;
31284;SDS011;56605;51.516;6.742;2022-12-18T07:45:57;50.10;;;20.67;;
31284;SDS011;56605;51.516;6.742;2022-12-18T07:48:22;40.33;;;16.37;;
31284;SDS011;56605;51.516;6.742;2022-12-18T07:50:47;32.37;;;15.50;;
31284;SDS011;56605;51.516;6.742;2022-12-18T07:53:13;41.00;;;17.90;;
31284;SDS011;56605;51.516;6.742;2022-12-18T07:55:39;44.03;;;19.13;;
31284;SDS011;56605;51.516;6.742;2022-12-18T07:58:04;45.17;;;17.73;;
31284;SDS011;56605;51.516;6.742;2022-12-18T08:00:30;42.20;;;19.13;;
31284;SDS011;56605;51.516;6.742;2022-12-18T08:02:55;33.30;;;16.10;;
31284;SDS011;56605;51.516;6.742;2022-12-18T08:05:20;45.50;;;18.83;;
31284;SDS011;56605;51.516;6.742;2022-12-18T08:07:46;51.53;;;20.27;;
31284;SDS011;56605;51.516;6.742;2022-12-18T08:10:11;37.73;;;17.90;;
31284;SDS011;56605;51.516;6.742;2022-12-18T08:12:36;34.40;;;15.13;;
31284;SDS011;56605;51.516;6.742;2022-12-18T08:15:01;33.67;;;17.53;;
31284;SDS011;56605;51.516;6.742;2022-12-18T08:17:26;35.83;;;17.10;;
31284;SDS011;56605;51.516;6.742;2022-12-18T08:19:52;35.73;;;15.77;;
31284;SDS011;56605;51.516;6.742;2022-12-18T08:22:17;29.93;;;15.53;;
31284;SDS011;56605;51.516;6.742;2022-12-18T08:24:42;32.77;;;17.03;;
31284;SDS011;56605;51.516;6.742;2022-12-18T08:27:07;44.33;;;18.93;;
31284;SDS011;56605;51.516;6.742;2022-12-18T08:29:32;48.27;;;21.73;;
31284;SDS011;56605;51.516;6.742;2022-12-18T08:31:58;41.73;;;20.17;;
31284;SDS011;56605;51.516;6.742;2022-12-18T08:34:23;30.03;;;16.00;;
31284;SDS011;56605;51.516;6.742;2022-12-18T08:36:48;46.03;;;18.33;;
31284;SDS011;56605;51.516;6.742;2022-12-18T08:39:14;49.50;;;19.73;;
31284;SDS011;56605;51.516;6.742;2022-12-18T08:41:39;40.70;;;18.73;;
31284;SDS011;56605;51.516;6.742;2022-12-18T08:44:04;42.37;;;19.00;;
31284;SDS011;56605;51.516;6.742;2022-12-18T08:46:48;51.93;;;20.77;;
31284;SDS011;56605;51.516;6.742;2022-12-18T08:49:13;42.20;;;19.57;;
31284;SDS011;56605;51.516;6.742;2022-12-18T08:51:39;41.07;;;20.00;;
31284;SDS011;56605;51.516;6.742;2022-12-18T08:54:04;46.87;;;19.77;;
31284;SDS011;56605;51.516;6.742;2022-12-18T08:56:30;44.00;;;19.60;;
31284;SDS011;56605;51.516;6.742;2022-12-18T08:58:55;46.20;;;21.10;;
31284;SDS011;56605;51.516;6.742;2022-12-18T09:01:21;46.10;;;20.80;;
31284;SDS011;56605;51.516;6.742;2022-12-18T09:03:47;43.07;;;17.63;;
31284;SDS011;56605;51.516;6.742;2022-12-18T09:06:16;44.00;;;18.13;;
31284;SDS011;56605;51.516;6.742;2022-12-18T09:08:42;34.93;;;17.73;;
31284;SDS011;56605;51.516;6.742;2022-12-18T09:11:21;42.80;;;19.13;;
31284;SDS011;56605;51.516;6.742;2022-12-18T09:13:47;32.53;;;16.20;;
31284;SDS011;56605;51.516;6.742;2022-12-18T09:16:12;32.97;;;17.13;;
31284;SDS011;56605;51.516;6.742;2022-12-18T09:18:37;39.93;;;18.10;;
31284;SDS011;56605;51.516;6.742;2022-12-18T09:21:11;34.73;;;18.13;;
31284;SDS011;56605;51.516;6.742;2022-12-18T09:23:36;39.63;;;19.83;;
31284;SDS011;56605;51.516;6.742;2022-12-18T09:26:02;36.33;;;18.83;;
31284;SDS011;56605;51.516;6.742;2022-12-18T09:28:27;34.77;;;17.73;;
31284;SDS011;56605;51.516;6.742;2022-12-18T09:30:52;39.47;;;18.80;;
31284;SDS011;56605;51.516;6.742;2022-12-18T09:33:18;49.87;;;21.27;;
31284;SDS011;56605;51.516;6.742;2022-12-18T09:35:43;38.90;;;20.53;;
31284;SDS011;56605;51.516;6.742;2022-12-18T09:38:11;40.73;;;20.67;;
31284;SDS011;56605;51.516;6.742;2022-12-18T09:40:41;48.40;;;23.73;;
31284;SDS011;56605;51.516;6.742;2022-12-18T09:43:09;41.83;;;21.87;;
31284;SDS011;56605;51.516;6.742;2022-12-18T09:45:39;47.10;;;22.77;;
31284;SDS011;56605;51.516;6.742;2022-12-18T09:48:05;41.97;;;22.00;;
31284;SDS011;56605;51.516;6.742;2022-12-18T09:50:38;42.63;;;20.93;;
31284;SDS011;56605;51.516;6.742;2022-12-18T09:53:10;44.53;;;21.10;;
31284;SDS011;56605;51.516;6.742;2022-12-18T09:55:38;44.73;;;20.73;;
31284;SDS011;56605;51.516;6.742;2022-12-18T09:58:06;52.53;;;23.40;;
31284;SDS011;56605;51.516;6.742;2022-12-18T10:00:32;44.33;;;21.00;;
31284;SDS011;56605;51.516;6.742;2022-12-18T10:03:02;33.33;;;17.87;;
31284;SDS011;56605;51.516;6.742;2022-12-18T10:05:51;42.90;;;19.67;;
31284;SDS011;56605;51.516;6.742;2022-12-18T10:08:22;48.07;;;20.87;;
31284;SDS011;56605;51.516;6.742;2022-12-18T10:10:50;47.67;;;23.87;;
31284;SDS011;56605;51.516;6.742;2022-12-18T10:15:53;39.70;;;21.03;;
31284;SDS011;56605;51.516;6.742;2022-12-18T10:20:45;38.33;;;21.80;;
31284;SDS011;56605;51.516;6.742;2022-12-18T10:26:09;38.37;;;20.57;;
31284;SDS011;56605;51.516;6.742;2022-12-18T10:28:36;40.73;;;20.20;;
31284;SDS011;56605;51.516;6.742;2022-12-18T10:31:01;40.33;;;21.03;;
31284;SDS011;56605;51.516;6.742;2022-12-18T10:33:30;38.90;;;18.27;;
31284;SDS011;56605;51.516;6.742;2022-12-18T10:35:56;38.90;;;19.50;;
31284;SDS011;56605;51.516;6.742;2022-12-18T10:38:23;35.20;;;20.33;;
31284;SDS011;56605;51.516;6.742;2022-12-18T10:40:50;37.23;;;19.30;;
31284;SDS011;56605;51.516;6.742;2022-12-18T10:43:19;38.73;;;20.13;;
31284;SDS011;56605;51.516;6.742;2022-12-18T10:45:57;39.47;;;20.63;;
31284;SDS011;56605;51.516;6.742;2022-12-18T10:48:23;45.57;;;21.13;;
31284;SDS011;56605;51.516;6.742;2022-12-18T10:50:49;38.97;;;20.80;;
31284;SDS011;56605;51.516;6.742;2022-12-18T10:53:21;40.80;;;21.17;;
31284;SDS011;56605;51.516;6.742;2022-12-18T10:55:47;43.50;;;20.60;;
31284;SDS011;56605;51.516;6.742;2022-12-18T10:58:13;44.47;;;21.97;;
31284;SDS011;56605;51.516;6.742;2022-12-18T11:00:40;54.07;;;23.43;;
31284;SDS011;56605;51.516;6.742;2022-12-18T11:03:14;49.37;;;23.50;;
31284;SDS011;56605;51.516;6.742;2022-12-18T11:05:56;43.60;;;22.27;;
31284;SDS011;56605;51.516;6.742;2022-12-18T11:08:25;40.60;;;20.13;;
31284;SDS011;56605;51.516;6.742;2022-12-18T11:10:50;39.13;;;20.93;;
31284;SDS011;56605;51.516;6.742;2022-12-18T11:13:22;36.73;;;20.33;;
31284;SDS011;56605;51.516;6.742;2022-12-18T11:15:48;38.97;;;21.90;;
31284;SDS011;56605;51.516;6.742;2022-12-18T11:18:18;39.17;;;21.17;;
31284;SDS011;56605;51.516;6.742;2022-12-18T11:20:49;31.87;;;17.90;;
31284;SDS011;56605;51.516;6.742;2022-12-18T11:23:15;31.17;;;16.87;;
31284;SDS011;56605;51.516;6.742;2022-12-18T11:25:40;28.73;;;15.07;;
31284;SDS011;56605;51.516;6.742;2022-12-18T11:33:37;21.63;;;9.70;;
31284;SDS011;56605;51.516;6.742;2022-12-18T11:36:04;15.73;;;8.43;;
31284;SDS011;56605;51.516;6.742;2022-12-18T11:38:30;11.13;;;6.20;;
31284;SDS011;56605;51.516;6.742;2022-12-18T11:41:41;13.50;;;6.50;;
31284;SDS011;56605;51.516;6.742;2022-12-18T11:44:19;9.17;;;5.53;;
31284;SDS011;56605;51.516;6.742;2022-12-18T11:46:37;11.80;;;6.40;;
31284;SDS011;56605;51.516;6.742;2022-12-18T11:49:07;13.17;;;6.13;;
31284;SDS011;56605;51.516;6.742;2022-12-18T11:51:37;7.37;;;3.53;;
31284;SDS011;56605;51.516;6.742;2022-12-18T11:54:12;16.23;;;8.57;;
31284;SDS011;56605;51.516;6.742;2022-12-18T11:56:49;21.23;;;8.53;;
31284;SDS011;56605;51.516;6.742;2022-12-18T11:59:20;33.43;;;13.50;;
31284;SDS011;56605;51.516;6.742;2022-12-18T12:01:50;18.23;;;8.67;;
31284;SDS011;56605;51.516;6.742;2022-12-18T12:17:17;12.70;;;8.00;;
31284;SDS011;56605;51.516;6.742;2022-12-18T12:19:53;20.70;;;9.43;;
31284;SDS011;56605;51.516;6.742;2022-12-18T12:30:20;13.80;;;7.57;;
31284;SDS011;56605;51.516;6.742;2022-12-18T12:38:14;12.37;;;6.17;;
31284;SDS011;56605;51.516;6.742;2022-12-18T12:40:43;16.03;;;6.17;;
31284;SDS011;56605;51.516;6.742;2022-12-18T12:43:21;9.73;;;5.30;;
31284;SDS011;56605;51.516;6.742;2022-12-18T12:48:32;9.70;;;5.93;;
31284;SDS011;56605;51.516;6.742;2022-12-18T12:51:00;8.27;;;3.53;;
31284;SDS011;56605;51.516;6.742;2022-12-18T12:53:28;12.70;;;6.03;;
31284;SDS011;56605;51.516;6.742;2022-12-18T12:55:55;10.90;;;5.50;;
31284;SDS011;56605;51.516;6.742;2022-12-18T13:05:58;12.10;;;5.80;;
31284;SDS011;56605;51.516;6.742;2022-12-18T13:08:26;10.47;;;4.80;;
31284;SDS011;56605;51.516;6.742;2022-12-18T13:10:53;11.83;;;6.37;;
31284;SDS011;56605;51.516;6.742;2022-12-18T13:13:52;11.13;;;5.40;;
31284;SDS011;56605;51.516;6.742;2022-12-18T13:16:19;8.80;;;4.27;;
31284;SDS011;56605;51.516;6.742;2022-12-18T13:18:51;13.20;;;6.70;;
31284;SDS011;56605;51.516;6.742;2022-12-18T13:21:21;10.27;;;4.23;;
31284;SDS011;56605;51.516;6.742;2022-12-18T13:23:48;12.73;;;5.67;;
31284;SDS011;56605;51.516;6.742;2022-12-18T13:33:53;10.30;;;4.17;;
31284;SDS011;56605;51.516;6.742;2022-12-18T13:36:34;10.13;;;4.13;;
31284;SDS011;56605;51.516;6.742;2022-12-18T13:39:10;11.90;;;6.97;;
31284;SDS011;56605;51.516;6.742;2022-12-18T13:41:36;16.33;;;6.33;;
31284;SDS011;56605;51.516;6.742;2022-12-18T13:46:45;17.93;;;7.50;;
31284;SDS011;56605;51.516;6.742;2022-12-18T13:51:43;12.50;;;6.27;;
31284;SDS011;56605;51.516;6.742;2022-12-18T13:56:42;11.00;;;5.47;;
31284;SDS011;56605;51.516;6.742;2022-12-18T13:59:15;14.90;;;7.40;;
31284;SDS011;56605;51.516;6.742;2022-12-18T14:01:42;12.70;;;6.50;;
31284;SDS011;56605;51.516;6.742;2022-12-18T14:04:20;8.90;;;4.63;;
31284;SDS011;56605;51.516;6.742;2022-12-18T14:06:46;16.67;;;6.43;;
31284;SDS011;56605;51.516;6.742;2022-12-18T14:09:15;12.17;;;6.27;;
31284;SDS011;56605;51.516;6.742;2022-12-18T14:11:47;11.97;;;6.23;;
31284;SDS011;56605;51.516;6.742;2022-12-18T14:14:14;15.03;;;7.30;;
31284;SDS011;56605;51.516;6.742;2022-12-18T14:16:40;15.73;;;4.97;;
31284;SDS011;56605;51.516;6.742;2022-12-18T14:19:08;10.93;;;4.30;;
31284;SDS011;56605;51.516;6.742;2022-12-18T14:21:36;16.23;;;8.03;;
31284;SDS011;56605;51.516;6.742;2022-12-18T14:26:33;16.57;;;5.40;;
31284;SDS011;56605;51.516;6.742;2022-12-18T14:29:00;14.23;;;5.77;;
31284;SDS011;56605;51.516;6.742;2022-12-18T14:31:27;16.10;;;7.53;;
31284;SDS011;56605;51.516;6.742;2022-12-18T14:33:53;12.57;;;6.97;;
31284;SDS011;56605;51.516;6.742;2022-12-18T14:36:19;13.07;;;6.03;;
31284;SDS011;56605;51.516;6.742;2022-12-18T14:38:47;8.63;;;4.20;;
31284;SDS011;56605;51.516;6.742;2022-12-18T14:41:13;20.40;;;7.50;;
31284;SDS011;56605;51.516;6.742;2022-12-18T14:43:40;22.73;;;10.43;;
31284;SDS011;56605;51.516;6.742;2022-12-18T14:46:25;18.67;;;8.53;;
31284;SDS011;56605;51.516;6.742;2022-12-18T14:48:50;18.60;;;7.80;;
31284;SDS011;56605;51.516;6.742;2022-12-18T14:51:17;27.37;;;11.03;;
31284;SDS011;56605;51.516;6.742;2022-12-18T14:53:47;10.27;;;6.10;;
31284;SDS011;56605;51.516;6.742;2022-12-18T14:56:16;19.57;;;7.73;;
31284;SDS011;56605;51.516;6.742;2022-12-18T14:58:49;3.37;;;2.53;;
31284;SDS011;56605;51.516;6.742;2022-12-18T15:01:19;20.90;;;8.77;;
31284;SDS011;56605;51.516;6.742;2022-12-18T15:03:45;22.47;;;9.10;;
31284;SDS011;56605;51.516;6.742;2022-12-18T15:08:55;17.90;;;8.53;;
31284;SDS011;56605;51.516;6.742;2022-12-18T15:11:27;18.50;;;9.07;;
31284;SDS011;56605;51.516;6.742;2022-12-18T15:13:52;8.17;;;4.53;;
31284;SDS011;56605;51.516;6.742;2022-12-18T15:16:17;14.83;;;6.40;;
31284;SDS011;56605;51.516;6.742;2022-12-18T15:18:42;16.87;;;8.43;;
31284;SDS011;56605;51.516;6.742;2022-12-18T15:21:10;10.10;;;5.97;;
31284;SDS011;56605;51.516;6.742;2022-12-18T15:23:38;11.53;;;6.47;;
31284;SDS011;56605;51.516;6.742;2022-12-18T15:26:10;15.70;;;6.50;;
31284;SDS011;56605;51.516;6.742;2022-12-18T15:33:43;33.53;;;19.10;;
31284;SDS011;56605;51.516;6.742;2022-12-18T15:36:12;21.20;;;10.47;;
31284;SDS011;56605;51.516;6.742;2022-12-18T15:38:37;26.07;;;10.23;;
31284;SDS011;56605;51.516;6.742;2022-12-18T15:41:03;21.33;;;9.93;;
31284;SDS011;56605;51.516;6.742;2022-12-18T15:43:28;11.17;;;5.13;;
31284;SDS011;56605;51.516;6.742;2022-12-18T15:46:06;18.63;;;9.33;;
31284;SDS011;56605;51.516;6.742;2022-12-18T15:48:32;17.20;;;7.30;;
31284;SDS011;56605;51.516;6.742;2022-12-18T15:50:58;18.83;;;10.00;;
31284;SDS011;56605;51.516;6.742;2022-12-18T15:53:24;14.30;;;7.03;;
31284;SDS011;56605;51.516;6.742;2022-12-18T15:55:50;16.93;;;6.83;;
31284;SDS011;56605;51.516;6.742;2022-12-18T15:58:34;20.47;;;9.87;;
31284;SDS011;56605;51.516;6.742;2022-12-18T16:00:59;17.63;;;7.73;;
31284;SDS011;56605;51.516;6.742;2022-12-18T16:03:25;14.93;;;6.53;;
31284;SDS011;56605;51.516;6.742;2022-12-18T16:05:50;16.87;;;8.70;;
31284;SDS011;56605;51.516;6.742;2022-12-18T16:08:16;11.88;;;5.65;;
31284;SDS011;56605;51.516;6.742;2022-12-18T16:10:41;19.07;;;8.80;;
31284;SDS011;56605;51.516;6.742;2022-12-18T16:13:09;13.03;;;6.17;;